Time,TemperatureF,DewpointF,PressureIn,WindDirection,WindDirectionDegrees,WindSpeedMPH,WindSpeedGustMPH,Humidity,HourlyPrecipIn,Conditions,Clouds,dailyrainin,SoftwareType,DateUTC
2013-01-22 00:14:00,13.3,-1.0,30.01,NW,311,13.0,-999.0,52,-99.99,,,0.00,weatherlink.com 1.10,2013-01-22 05:14:00,
2013-01-22 00:29:00,12.6,-1.0,30.02,NNW,328,7.0,-999.0,56,-99.99,,,0.00,weatherlink.com 1.10,2013-01-22 05:29:00,
2013-01-22 00:44:00,12.3,0.0,30.02,WNW,299,1.0,-999.0,57,-99.99,,,0.00,weatherlink.com 1.10,2013-01-22 05:44:00,
2013-01-22 00:59:00,12.3,-1.0,30.02,NW,305,6.0,-999.0,55,-99.99,,,0.00,weatherlink.com 1.10,2013-01-22 05:59:00,
2013-01-22 01:14:00,12.1,0.0,30.02,NW,316,11.0,-999.0,59,-99.99,,,0.00,weatherlink.com 1.10,2013-01-22 06:14:00,
2013-01-22 01:29:00,11.4,3.0,30.03,NNW,336,7.0,-999.0,68,-99.99,,,0.00,weatherlink.com 1.10,2013-01-22 06:29:00,
2013-01-22 01:44:00,11.2,0.0,30.04,WSW,241,6.0,-999.0,61,-99.99,,,0.00,weatherlink.com 1.10,2013-01-22 06:44:00,
2013-01-22 01:59:00,11.2,-2.0,30.04,NW,311,5.0,-999.0,56,-99.99,,,0.00,weatherlink.com 1.10,2013-01-22 06:59:00,
2013-01-22 02:14:00,10.9,-3.0,30.05,WNW,294,4.0,-999.0,54,-99.99,,,0.00,weatherlink.com 1.10,2013-01-22 07:14:00,
2013-01-22 02:29:00,10.7,-3.0,30.06,WSW,258,10.0,-999.0,55,-99.99,,,0.00,weatherlink.com 1.10,2013-01-22 07:29:00,
2013-01-22 02:44:00,10.0,-5.0,30.07,WSW,251,14.0,-999.0,51,-99.99,,,0.00,weatherlink.com 1.10,2013-01-22 07:44:00,
2013-01-22 02:59:00,9.7,-4.0,30.08,WNW,295,2.0,-999.0,53,-99.99,,,0.00,weatherlink.com 1.10,2013-01-22 07:59:00,
2013-01-22 03:15:00,9.2,-6.0,30.08,WNW,299,5.0,-999.0,50,-99.99,,,0.00,weatherlink.com 1.10,2013-01-22 08:15:00,
2013-01-22 03:30:00,9.0,-6.0,30.09,NNW,346,3.0,-999.0,51,-99.99,,,0.00,weatherlink.com 1.10,2013-01-22 08:30:00,
2013-01-22 03:45:00,8.8,-6.0,30.09,West,267,10.0,-999.0,52,-99.99,,,0.00,weatherlink.com 1.10,2013-01-22 08:45:00,
2013-01-22 04:00:00,8.6,-5.0,30.09,West,280,5.0,-999.0,53,-99.99,,,0.00,weatherlink.com 1.10,2013-01-22 09:00:00,
2013-01-22 04:15:00,8.4,-5.0,30.10,WNW,285,14.0,-999.0,54,-99.99,,,0.00,weatherlink.com 1.10,2013-01-22 09:15:00,
2013-01-22 04:30:00,8.1,-6.0,30.10,WNW,287,6.0,-999.0,54,-99.99,,,0.00,weatherlink.com 1.10,2013-01-22 09:30:00,
2013-01-22 04:45:00,7.7,-6.0,30.11,WNW,295,1.0,-999.0,55,-99.99,,,0.00,weatherlink.com 1.10,2013-01-22 09:45:00,
2013-01-22 05:00:00,7.6,-5.0,30.11,WNW,301,7.0,-999.0,56,-99.99,,,0.00,weatherlink.com 1.10,2013-01-22 10:00:00,
2013-01-22 05:15:00,7.4,-5.0,30.12,NW,316,8.0,-999.0,57,-99.99,,,0.00,weatherlink.com 1.10,2013-01-22 10:15:00,
2013-01-22 05:30:00,7.2,-5.0,30.12,West,267,9.0,-999.0,57,-99.99,,,0.00,weatherlink.com 1.10,2013-01-22 10:30:00,
2013-01-22 05:45:00,7.2,-5.0,30.12,WNW,296,3.0,-999.0,57,-99.99,,,0.00,weatherlink.com 1.10,2013-01-22 10:45:00,
2013-01-22 06:00:00,7.2,-5.0,30.14,NW,305,2.0,-999.0,58,-99.99,,,0.00,weatherlink.com 1.10,2013-01-22 11:00:00,
2013-01-22 06:15:00,7.2,-5.0,30.15,West,268,5.0,-999.0,59,-99.99,,,0.00,weatherlink.com 1.10,2013-01-22 11:15:00,
2013-01-22 06:31:00,7.0,-4.0,30.15,WNW,302,3.0,-999.0,61,-99.99,,,0.00,weatherlink.com 1.10,2013-01-22 11:31:00,
2013-01-22 06:46:00,6.9,-5.0,30.16,WNW,298,7.0,-999.0,59,-99.99,,,0.00,weatherlink.com 1.10,2013-01-22 11:46:00,
2013-01-22 07:01:00,6.9,-5.0,30.16,NW,304,6.0,-999.0,59,-99.99,,,0.00,weatherlink.com 1.10,2013-01-22 12:01:00,
2013-01-22 07:16:00,6.9,-3.0,30.17,WNW,302,2.0,-999.0,63,-99.99,,,0.00,weatherlink.com 1.10,2013-01-22 12:16:00,
2013-01-22 07:31:00,6.9,-3.0,30.17,West,281,6.0,-999.0,64,-99.99,,,0.00,weatherlink.com 1.10,2013-01-22 12:31:00,
2013-01-22 07:46:00,6.9,-3.0,30.18,WSW,243,2.0,-999.0,64,-99.99,,,0.00,weatherlink.com 1.10,2013-01-22 12:46:00,
2013-01-22 08:01:00,6.7,-3.0,30.19,West,263,3.0,-999.0,64,-99.99,,,0.00,weatherlink.com 1.10,2013-01-22 13:01:00,
2013-01-22 08:16:00,6.9,-3.0,30.20,WSW,247,5.0,-999.0,64,-99.99,,,0.00,weatherlink.com 1.10,2013-01-22 13:16:00,
2013-01-22 08:31:00,6.9,-4.0,30.21,West,271,3.0,-999.0,62,-99.99,,,0.00,weatherlink.com 1.10,2013-01-22 13:31:00,
2013-01-22 09:01:00,6.9,-6.0,30.21,WSW,246,11.0,-999.0,57,-99.99,,,0.00,weatherlink.com 1.10,2013-01-22 14:01:00,
2013-01-22 09:16:00,7.2,-6.0,30.22,West,268,5.0,-999.0,56,-99.99,,,0.00,weatherlink.com 1.10,2013-01-22 14:16:00,
2013-01-22 09:31:00,7.7,-5.0,30.22,WNW,298,4.0,-999.0,56,-99.99,,,0.00,weatherlink.com 1.10,2013-01-22 14:31:00,
2013-01-22 09:47:00,8.1,-5.0,30.22,WNW,301,5.0,-999.0,56,-99.99,,,0.00,weatherlink.com 1.10,2013-01-22 14:47:00,
2013-01-22 10:02:00,8.1,-5.0,30.23,NW,318,10.0,-999.0,55,-99.99,,,0.00,weatherlink.com 1.10,2013-01-22 15:02:00,
2013-01-22 10:17:00,7.9,-6.0,30.23,NW,309,3.0,-999.0,53,-99.99,,,0.00,weatherlink.com 1.10,2013-01-22 15:17:00,
2013-01-22 10:32:00,9.2,-6.0,30.23,NW,316,5.0,-999.0,51,-99.99,,,0.00,weatherlink.com 1.10,2013-01-22 15:32:00,
2013-01-22 10:47:00,9.9,-5.0,30.23,WNW,288,2.0,-999.0,52,-99.99,,,0.00,weatherlink.com 1.10,2013-01-22 15:47:00,
2013-01-22 11:02:00,9.5,-5.0,30.23,NW,319,7.0,-999.0,51,-99.99,,,0.00,weatherlink.com 1.10,2013-01-22 16:02:00,
2013-01-22 11:17:00,9.3,-6.0,30.23,NW,313,5.0,-999.0,51,-99.99,,,0.00,weatherlink.com 1.10,2013-01-22 16:17:00,
2013-01-22 11:32:00,10.4,-8.0,30.22,WNW,292,11.0,-999.0,44,-99.99,,,0.00,weatherlink.com 1.10,2013-01-22 16:32:00,
2013-01-22 11:47:00,10.5,-8.0,30.22,NW,320,11.0,-999.0,44,-99.99,,,0.00,weatherlink.com 1.10,2013-01-22 16:47:00,
2013-01-22 12:02:00,10.7,-6.0,30.21,NNW,328,3.0,-999.0,46,-99.99,,,0.00,weatherlink.com 1.10,2013-01-22 17:02:00,
2013-01-22 12:17:00,12.3,-5.0,30.20,WNW,291,3.0,-999.0,47,-99.99,,,0.00,weatherlink.com 1.10,2013-01-22 17:17:00,
2013-01-22 12:32:00,12.4,-5.0,30.20,WNW,292,10.0,-999.0,45,-99.99,,,0.00,weatherlink.com 1.10,2013-01-22 17:32:00,
2013-01-22 12:47:00,12.4,-6.0,30.19,NW,319,7.0,-999.0,43,-99.99,,,0.00,weatherlink.com 1.10,2013-01-22 17:47:00,
2013-01-22 13:02:00,12.4,-7.0,30.19,West,263,11.0,-999.0,42,-99.99,,,0.00,weatherlink.com 1.10,2013-01-22 18:02:00,
2013-01-22 13:18:00,11.6,-8.0,30.19,WSW,240,10.0,-999.0,42,-99.99,,,0.00,weatherlink.com 1.10,2013-01-22 18:18:00,
2013-01-22 13:33:00,12.1,-7.0,30.18,West,275,11.0,-999.0,42,-99.99,,,0.00,weatherlink.com 1.10,2013-01-22 18:33:00,
2013-01-22 13:48:00,12.8,-6.0,30.18,WSW,258,10.0,-999.0,43,-99.99,,,0.00,weatherlink.com 1.10,2013-01-22 18:48:00,
2013-01-22 14:03:00,13.3,-6.0,30.18,WNW,289,5.0,-999.0,42,-99.99,,,0.00,weatherlink.com 1.10,2013-01-22 19:03:00,
2013-01-22 14:18:00,11.9,-6.0,30.18,West,278,10.0,-999.0,45,-99.99,,,0.00,weatherlink.com 1.10,2013-01-22 19:18:00,
2013-01-22 14:33:00,13.1,-4.0,30.18,WSW,258,5.0,-999.0,46,-99.99,,,0.00,weatherlink.com 1.10,2013-01-22 19:33:00,
2013-01-22 14:48:00,13.5,-4.0,30.19,WNW,292,5.0,-999.0,45,-99.99,,,0.00,weatherlink.com 1.10,2013-01-22 19:48:00,
2013-01-22 15:03:00,12.9,-5.0,30.19,NW,315,6.0,-999.0,45,-99.99,,,0.00,weatherlink.com 1.10,2013-01-22 20:03:00,
2013-01-22 15:18:00,13.3,-5.0,30.18,West,272,10.0,-999.0,44,-99.99,,,0.00,weatherlink.com 1.10,2013-01-22 20:18:00,
2013-01-22 15:33:00,13.3,-5.0,30.18,WNW,302,3.0,-999.0,45,-99.99,,,0.00,weatherlink.com 1.10,2013-01-22 20:33:00,
2013-01-22 15:48:00,13.5,-5.0,30.18,NW,322,2.0,-999.0,44,-99.99,,,0.00,weatherlink.com 1.10,2013-01-22 20:48:00,
2013-01-22 16:03:00,13.6,-4.0,30.19,WNW,294,4.0,-999.0,45,-99.99,,,0.00,weatherlink.com 1.10,2013-01-22 21:03:00,
2013-01-22 16:18:00,12.6,-6.0,30.20,WNW,302,7.0,-999.0,44,-99.99,,,0.00,weatherlink.com 1.10,2013-01-22 21:18:00,
2013-01-22 16:33:00,14.1,-5.0,30.20,NW,306,3.0,-999.0,42,-99.99,,,0.00,weatherlink.com 1.10,2013-01-22 21:33:00,
2013-01-22 16:48:00,12.8,-6.0,30.21,West,275,7.0,-999.0,43,-99.99,,,0.00,weatherlink.com 1.10,2013-01-22 21:48:00,
2013-01-22 17:04:00,12.4,-5.0,30.21,West,274,1.0,-999.0,46,-99.99,,,0.00,weatherlink.com 1.10,2013-01-22 22:04:00,
2013-01-22 17:19:00,12.4,-6.0,30.22,WNW,282,7.0,-999.0,44,-99.99,,,0.00,weatherlink.com 1.10,2013-01-22 22:19:00,
2013-01-22 17:34:00,12.1,-7.0,30.22,WNW,282,6.0,-999.0,43,-99.99,,,0.00,weatherlink.com 1.10,2013-01-22 22:34:00,
2013-01-22 17:49:00,11.9,-6.0,30.23,West,274,0.0,-999.0,45,-99.99,,,0.00,weatherlink.com 1.10,2013-01-22 22:49:00,
2013-01-22 18:04:00,11.7,-6.0,30.23,WSW,256,5.0,-999.0,45,-99.99,,,0.00,weatherlink.com 1.10,2013-01-22 23:04:00,
2013-01-22 18:19:00,11.6,-6.0,30.23,West,270,1.0,-999.0,46,-99.99,,,0.00,weatherlink.com 1.10,2013-01-22 23:19:00,
2013-01-22 18:34:00,11.6,-5.0,30.23,West,265,3.0,-999.0,48,-99.99,,,0.00,weatherlink.com 1.10,2013-01-22 23:34:00,
2013-01-22 18:49:00,11.4,-5.0,30.23,WNW,291,2.0,-999.0,48,-99.99,,,0.00,weatherlink.com 1.10,2013-01-22 23:49:00,
2013-01-22 19:04:00,11.4,-5.0,30.24,WNW,285,0.0,-999.0,49,-99.99,,,0.00,weatherlink.com 1.10,2013-01-23 00:04:00,
2013-01-22 19:19:00,11.4,-5.0,30.24,WSW,253,2.0,-999.0,49,-99.99,,,0.00,weatherlink.com 1.10,2013-01-23 00:19:00,
2013-01-22 19:34:00,11.7,-5.0,30.24,NW,311,3.0,-999.0,48,-99.99,,,0.00,weatherlink.com 1.10,2013-01-23 00:34:00,
2013-01-22 19:49:00,11.6,-4.0,30.25,NW,304,0.0,-999.0,49,-99.99,,,0.00,weatherlink.com 1.10,2013-01-23 00:49:00,
2013-01-22 20:05:00,11.4,-4.0,30.25,NNW,332,4.0,-999.0,50,-99.99,,,0.00,weatherlink.com 1.10,2013-01-23 01:05:00,
2013-01-22 20:20:00,10.5,-4.0,30.25,NNW,339,4.0,-999.0,53,-99.99,,,0.00,weatherlink.com 1.10,2013-01-23 01:20:00,
2013-01-22 20:35:00,10.2,-3.0,30.26,NNW,337,2.0,-999.0,55,-99.99,,,0.00,weatherlink.com 1.10,2013-01-23 01:35:00,
2013-01-22 20:50:00,10.2,-3.0,30.26,NNW,329,1.0,-999.0,55,-99.99,,,0.00,weatherlink.com 1.10,2013-01-23 01:50:00,
2013-01-22 21:05:00,10.0,-3.0,30.26,NW,322,3.0,-999.0,55,-99.99,,,0.00,weatherlink.com 1.10,2013-01-23 02:05:00,
2013-01-22 21:20:00,10.0,-3.0,30.26,NW,323,2.0,-999.0,56,-99.99,,,0.00,weatherlink.com 1.10,2013-01-23 02:20:00,
2013-01-22 21:35:00,9.9,-3.0,30.26,NW,323,2.0,-999.0,55,-99.99,,,0.00,weatherlink.com 1.10,2013-01-23 02:35:00,
2013-01-22 21:50:00,9.9,-3.0,30.25,NW,323,1.0,-999.0,56,-99.99,,,0.00,weatherlink.com 1.10,2013-01-23 02:50:00,
2013-01-22 22:05:00,9.9,-3.0,30.25,NW,323,0.0,-999.0,57,-99.99,,,0.00,weatherlink.com 1.10,2013-01-23 03:05:00,
2013-01-22 22:20:00,9.9,-3.0,30.25,NW,320,7.0,-999.0,56,-99.99,,,0.00,weatherlink.com 1.10,2013-01-23 03:20:00,
2013-01-22 22:35:00,9.5,-3.0,30.25,NW,320,3.0,-999.0,56,-99.99,,,0.00,weatherlink.com 1.10,2013-01-23 03:35:00,
2013-01-22 22:50:00,9.2,-3.0,30.26,NW,320,1.0,-999.0,57,-99.99,,,0.00,weatherlink.com 1.10,2013-01-23 03:50:00,
2013-01-22 23:05:00,9.0,-4.0,30.27,NW,320,0.0,-999.0,57,-99.99,,,0.00,weatherlink.com 1.10,2013-01-23 04:05:00,
2013-01-22 23:20:00,8.8,-3.0,30.26,NW,320,0.0,-999.0,58,-99.99,,,0.00,weatherlink.com 1.10,2013-01-23 04:20:00,
2013-01-22 23:35:00,8.8,-3.0,30.25,NW,316,2.0,-999.0,58,-99.99,,,0.00,weatherlink.com 1.10,2013-01-23 04:35:00,
2013-01-22 23:51:00,8.4,-3.0,30.25,NW,318,0.0,-999.0,59,-99.99,,,0.00,weatherlink.com 1.10,2013-01-23 04:51:00,